Startline

Bettys Run for ALS

Calgary, AB - June 9, 2013

EventPlaceGun Time Race #NameDivision Place/GenderPlace/Division Chip Time
5 Miles 1/370 0:32:26 2091 FRY, Geoffrey M-U20 1/173 1/42 0:32:19
5 Miles 2/370 0:32:59 2150 BROOKS, Keegan M2029 2/173 1/34 0:32:52
5 Miles 3/370 0:33:51 2248 KING, Shane M3039 3/173 1/32 0:33:51
5 Miles 4/370 0:33:55 2285 MERCIER, Barbara F4049 1/196 1/37 0:33:49
5 Miles 5/370 0:34:19 3533 LESTER, Oliver M-U20 4/173 2/42 0:34:19
5 Miles 6/370 0:35:19 3077 WORKMAN, Joseph M-U20 5/173 3/42 0:35:17
5 Miles 7/370 0:35:39 3575 PROCHNAVY, Matthew M2029 6/173 2/34 0:35:36
5 Miles 8/370 0:35:42 3059 THORNTON, Cory M3039 7/173 2/32 0:35:38
5 Miles 9/370 0:35:45 3510 MCNISH, David M-U20 8/173 4/42 0:35:43
5 Miles 10/370 0:35:46 2008 COPELAND, Thomas M-U20 9/173 5/42 0:35:46
5 Miles 11/370 0:35:48 2040 WILLIAMS, Josh M-U20 10/173 6/42 0:35:48
5 Miles 12/370 0:35:53 2228 HORNE, Erik M3039 11/173 3/32 0:35:45
5 Miles 13/370 0:36:12 2186 DOUCETTE, Marcel M3039 12/173 4/32 0:36:11
5 Miles 14/370 0:36:14 3567 AUDFROID, Mike M3039 13/173 5/32 0:35:46
5 Miles 15/370 0:36:47 2151 BROWN, Shannon F4049 2/196 2/37 0:36:45
5 Miles 16/370 0:36:55 3002 ONG, Simon M2029 14/173 3/34 0:36:53
5 Miles 17/370 0:37:11 3051 SWARTZ, Zack M2029 15/173 4/34 0:37:11
5 Miles 18/370 0:37:28 3003 OUIMET, Robert M4049 16/173 1/28 0:37:26
5 Miles 19/370 0:37:30 2224 HENNIGAR, David M3039 17/173 6/32 0:37:29
5 Miles 20/370 0:37:54 3566 SAINSBURY, Rob M2029 18/173 5/34 0:37:45
5 Miles 21/370 0:37:58 3100 LEFEBVRE, James M-U20 19/173 7/42 0:37:46
5 Miles 22/370 0:38:13 2204 GRAHAM, Rae F3039 3/196 1/51 0:37:56
5 Miles 23/370 0:38:19 3538 VAN SANT, Ben M5059 20/173 1/31 0:38:16
5 Miles 24/370 0:38:22 3506 REYES, Carlos M4049 21/173 2/28 0:38:11
5 Miles 25/370 0:38:28 2282 MCNISH, Ian M5059 22/173 2/31 0:38:26
5 Miles 26/370 0:38:32 2226 HILLAND, Lance M-U20 23/173 8/42 0:37:33
5 Miles 27/370 0:38:33 2214 HAINES, Chelsea F3039 4/196 2/51 0:38:27
5 Miles 28/370 0:38:52 2027 MATHIEU, Tyler M-U20 24/173 9/42 0:38:52
5 Miles 29/370 0:38:56 2300 O'GRADY, Paul M3039 25/173 7/32 0:38:52
5 Miles 30/370 0:39:00 2278 MCKAY, Colin M2029 26/173 6/34 0:38:04
5 Miles 31/370 0:39:01 3029 SALAHUB, Christopher M-U20 27/173 10/42 0:38:43
5 Miles 32/370 0:39:07 3090 ROBINSON, Stephen M4049 28/173 3/28 0:38:58
5 Miles 33/370 0:39:08 3018 RENNER, Kurt M5059 29/173 3/31 0:38:43
5 Miles 34/370 0:39:10 2209 GROTSKY, Michael M-U20 30/173 11/42 0:38:52
5 Miles 35/370 0:39:14 2128 ARCHER, Nathan M-U20 31/173 12/42 0:39:00
5 Miles 36/370 0:39:14 2289 MILNER, Rob M5059 32/173 4/31 0:38:56
5 Miles 37/370 0:39:22 2069 SCHULTZ, Tim M3039 33/173 8/32 0:38:39
5 Miles 38/370 0:39:28 2179 CUSACK, Fran F5059 5/196 1/29 0:39:01
5 Miles 39/370 0:39:32 2296 NISHIDA, Travis M3039 34/173 9/32 0:39:01
5 Miles 40/370 0:39:34 2006 BLACKEY, Jason M5059 35/173 5/31 0:39:28
5 Miles 41/370 0:39:39 3044 SIT, Grace F3039 6/196 3/51 0:39:26
5 Miles 42/370 0:39:58 2062 JONES, Christopher M-U20 36/173 13/42 0:39:34
5 Miles 43/370 0:40:01 3557 ISSLER, Travis M-U20 37/173 14/42 0:39:42
5 Miles 44/370 0:40:07 2033 MOSKALUK, Riley M-U20 38/173 15/42 0:40:07
5 Miles 45/370 0:40:12 2181 DAWSON, Jorden M2029 39/173 7/34 0:40:01
5 Miles 46/370 0:40:14 3524 DEWEERD, Jason M3039 40/173 10/32 0:39:45
5 Miles 47/370 0:40:17 2168 CLEAVELEY, Stacey F3039 7/196 4/51 0:40:09
5 Miles 48/370 0:40:22 2253 KRUSHELNICKI, Chad M3039 41/173 11/32 0:40:05
5 Miles 49/370 0:40:33 3525 PINTO, Rafael M4049 42/173 4/28 0:40:21
5 Miles 50/370 0:40:37 2287 MILBURY, Dawson M5059 43/173 6/31 0:40:30
5 Miles 51/370 0:40:48 2246 KELMAN, Russ M4049 44/173 5/28 0:40:23
5 Miles 52/370 0:40:53 2234 HUTCHINSON, Avie M5059 45/173 7/31 0:40:29
5 Miles 53/370 0:40:54 3093 THORNE, Jim M5059 46/173 8/31 0:40:45
5 Miles 54/370 0:40:57 3565 ROY, Patrick M-U20 47/173 16/42 0:40:22
5 Miles 55/370 0:40:58 2288 MILNER, Danielle F2029 8/196 1/51 0:40:42
5 Miles 56/370 0:41:00 2155 CAMPBELL, John M-U20 48/173 17/42 0:40:57
5 Miles 57/370 0:41:00 2266 MAHONEY, Carolyn F3039 9/196 5/51 0:40:54
5 Miles 58/370 0:41:16 3013 QUIBELL, Shayna F-U20 10/196 1/23 0:41:13
5 Miles 59/370 0:41:28 2267 MALCOLM, Beverly F4049 11/196 3/37 0:41:27
5 Miles 60/370 0:41:30 3503 TEMPLE, Samantha F2029 12/196 2/51 0:40:58
5 Miles 61/370 0:41:32 2063 JONES, Kim M5059 49/173 9/31 0:41:10
5 Miles 62/370 0:41:45 3008 PENROSE BAKAY, Caroline F3039 13/196 6/51 0:41:37
5 Miles 63/370 0:41:45 3033 SAUNDERS, Jim M5059 50/173 10/31 0:41:07
5 Miles 64/370 0:41:53 3045 SKOV, Bonnie F6069 14/196 1/5 0:41:44
5 Miles 65/370 0:42:04 3096 SADO, Ayiri M2029 51/173 8/34 0:41:25
5 Miles 66/370 0:42:05 2233 HUSTON, Lisa F2029 15/196 3/51 0:41:45
5 Miles 67/370 0:42:08 3515 HOPFNER, Jeff M2029 52/173 9/34 0:41:27
5 Miles 68/370 0:42:11 2208 GRAY, Brian M4049 53/173 6/28 0:41:57
5 Miles 69/370 0:42:15 2238 IREGUI, Raul M4049 54/173 7/28 0:42:11
5 Miles 70/370 0:42:17 2207 GRAY, Belinda F4049 16/196 4/37 0:42:03
5 Miles 71/370 0:42:17 2247 KI, Landry M-U20 55/173 18/42 0:42:14
5 Miles 72/370 0:42:22 2135 BALDWIN, Nicholas M2029 56/173 10/34 0:41:32
5 Miles 73/370 0:42:28 3025 ROSTAD, Joanne F5059 17/196 2/29 0:42:10
5 Miles 74/370 0:42:31 2299 OBREITER, Kristin F3039 18/196 7/51 0:42:23
5 Miles 75/370 0:42:34 3547 DEHEKKER, Glenn M5059 57/173 11/31 0:42:19
5 Miles 76/370 0:42:35 2123 ANDERSON, David M5059 58/173 12/31 0:42:22
5 Miles 77/370 0:42:36 3509 ROSS, Justin M-U20 59/173 19/42 0:42:30
5 Miles 78/370 0:42:37 2125 ANDERSON, Ryan M2029 60/173 11/34 0:42:24
5 Miles 79/370 0:42:41 2236 HUTCHINSON, Marni F3039 19/196 8/51 0:42:24
5 Miles 80/370 0:42:44 3519 PARKER, Alicia F-U20 20/196 2/23 0:42:30
5 Miles 81/370 0:42:54 2275 MCINNES, Brenda F4049 21/196 5/37 0:42:43
5 Miles 82/370 0:42:54 2276 MCINNES, John M5059 61/173 13/31 0:42:42
5 Miles 83/370 0:42:56 2203 GRAHAM, Chris M3039 62/173 12/32 0:42:40
5 Miles 84/370 0:43:03 2073 JABBAL, Arjun M2029 63/173 12/34 0:42:58
5 Miles 85/370 0:43:07 2256 KWON, Young-Mi F4049 22/196 6/37 0:42:49
5 Miles 86/370 0:43:10 2170 COBBETT, Danielle F3039 23/196 9/51 0:43:10
5 Miles 87/370 0:43:10 2161 CHEHADE, Manammed M2029 64/173 13/34 0:42:35
5 Miles 88/370 0:43:12 3038 SHANER, Chantal F4049 24/196 7/37 0:43:05
5 Miles 89/370 0:43:19 3555 SHIRLEY, Tanner M-U20 65/173 20/42 0:42:59
5 Miles 90/370 0:43:19 2194 FRICK, Jillian F2029 25/196 4/51 0:42:30
5 Miles 91/370 0:43:20 3508 CHRISTOFFERSEN, Michelle F4049 26/196 8/37 0:42:53
5 Miles 92/370 0:43:29 2274 MCGRATH, Sandra F5059 27/196 3/29 0:43:11
5 Miles 93/370 0:43:30 2264 LONG, Ron M5059 66/173 14/31 0:42:52
5 Miles 94/370 0:43:35 2127 ARCHER, Jen F-U20 28/196 3/23 0:43:19
5 Miles 95/370 0:43:35 2202 GIRARD, Kyle M3039 67/173 13/32 0:43:17
5 Miles 96/370 0:43:38 3507 ZAROWNY, Sandra F3039 29/196 10/51 0:43:00
5 Miles 97/370 0:43:46 2057 SWYNGEDOUW, Chris M5059 68/173 15/31 0:43:34
5 Miles 98/370 0:43:46 2187 DUBBIN, Dennis M4049 69/173 8/28 0:42:48
5 Miles 99/370 0:43:46 2126 ANDRES, Justin M-U20 70/173 21/42 0:42:57
5 Miles 100/370 0:43:47 2198 GALVIN, Kayla F2029 30/196 5/51 0:42:57
5 Miles 101/370 0:43:55 2241 JEGARD, Phil M2029 71/173 14/34 0:43:50
5 Miles 102/370 0:43:59 3021 ROBERTSHAW, Brett M-U20 72/173 22/42 0:43:42
5 Miles 103/370 0:44:00 3527 CHASE, Ian M4049 73/173 9/28 0:43:54
5 Miles 104/370 0:44:00 2190 FISHER, Jolie F-U20 31/196 4/23 0:43:44
5 Miles 105/370 0:44:07 3546 CORNETT-CHING, Ryan M2029 74/173 15/34 0:43:48
5 Miles 106/370 0:44:07 3540 MAKUK, Brian M-U20 75/173 23/42 0:43:50
5 Miles 107/370 0:44:07 2174 CORNETT-CHING, David M5059 76/173 16/31 0:43:47
5 Miles 108/370 0:44:11 3571 REYES, Darlon M3039 77/173 14/32 0:43:34
5 Miles 109/370 0:44:12 3094 DURAND, Linda F5059 32/196 4/29 0:44:10
5 Miles 110/370 0:44:14 2193 FORSYTH, Alexa F3039 33/196 11/51 0:43:10
5 Miles 111/370 0:44:25 2001 JOHNSTON, Kyla F2029 34/196 6/51 0:43:46
5 Miles 112/370 0:44:26 3084 BEAULIEU, Mike M2029 78/173 16/34 0:43:50
5 Miles 113/370 0:44:26 2046 GEORGE, Kevin M5059 79/173 17/31 0:44:12
5 Miles 114/370 0:44:29 2258 LARA, Lee F4049 35/196 9/37 0:44:13
5 Miles 115/370 0:44:32 3504 LODORICA, David M2029 80/173 17/34 0:43:59
5 Miles 116/370 0:44:36 2255 KUHN, Ralph M5059 81/173 18/31 0:44:13
5 Miles 117/370 0:44:37 3006 PARKER, Todd M4049 82/173 10/28 0:44:23
5 Miles 118/370 0:44:39 2265 LORENSCHEIT, Johnny M2029 83/173 18/34 0:43:50
5 Miles 119/370 0:44:49 2178 COUTURE, Valerie F3039 36/196 12/51 0:44:23
5 Miles 120/370 0:44:49 2200 GIASSON, Anne-Marie F3039 37/196 13/51 0:44:22
5 Miles 121/370 0:44:59 3531 DUPONT, Nicole F3039 38/196 14/51 0:44:18
5 Miles 122/370 0:45:01 2131 BAILLARGEON, Colin M2029 84/173 19/34 0:44:04
5 Miles 123/370 0:45:04 3535 WILES, Robert M4049 85/173 11/28 0:44:45
5 Miles 124/370 0:45:11 2270 MAXWELL, Peter M3039 86/173 15/32 0:45:01
5 Miles 125/370 0:45:15 2145 BLINN, Patricia (Trish) F2029 39/196 7/51 0:45:08
5 Miles 126/370 0:45:15 2211 HADDOW, Ashleigh F2029 40/196 8/51 0:44:27
5 Miles 127/370 0:45:30 2107 MACNEIL, Maggie F-U20 41/196 5/23 0:44:56
5 Miles 128/370 0:45:31 3043 SINCLAIR, Sarah F5059 42/196 5/29 0:45:23
5 Miles 129/370 0:45:39 3016 REID, Linda F5059 43/196 6/29 0:44:54
5 Miles 130/370 0:45:39 3573 TERADO, Rainier M2029 87/173 20/34 0:45:25
5 Miles 131/370 0:45:41 2171 COBBETT, Scott M4049 88/173 12/28 0:45:28
5 Miles 132/370 0:45:49 2189 FILLO, Angela F2029 44/196 9/51 0:45:42
5 Miles 133/370 0:45:49 2143 BITTNER, Danielle F-U20 45/196 6/23 0:45:18
5 Miles 134/370 0:45:50 2144 BITTNER, Scott M5059 89/173 19/31 0:45:19
5 Miles 135/370 0:45:51 3564 ROY, Niki F2029 46/196 10/51 0:45:19
5 Miles 136/370 0:45:54 3089 VASQUEZ, Alvaro M4049 90/173 13/28 0:45:24
5 Miles 137/370 0:45:58 2263 LOHMANN, Rod M4049 91/173 14/28 0:45:29
5 Miles 138/370 0:46:03 2217 HANNA, Michelle F3039 47/196 15/51 0:45:38
5 Miles 139/370 0:46:09 2164 CHERESNUIK, Sydney F-U20 48/196 7/23 0:46:02
5 Miles 140/370 0:46:12 3522 MAURICE, Philip M6069 92/173 1/6 0:45:26
5 Miles 141/370 0:46:15 3086 WILSON, Robert M2029 93/173 21/34 0:45:50
5 Miles 142/370 0:46:17 2067 SCHISSEL, Jana F3039 49/196 16/51 0:45:35
5 Miles 143/370 0:46:18 2104 MACDONALD, Maureen F4049 50/196 10/37 0:45:55
5 Miles 144/370 0:46:19 2271 MCCANN, Rodney M4049 94/173 15/28 0:45:54
5 Miles 145/370 0:46:19 2093 GIRLING, Kelly F4049 51/196 11/37 0:45:55
5 Miles 146/370 0:46:22 2227 HOLLMAN, Garrett M3039 95/173 16/32 0:45:30
5 Miles 147/370 0:46:23 3078 WRIGHT, Jamie F3039 52/196 17/51 0:46:02
5 Miles 148/370 0:46:27 3009 PETERS, Russ M4049 96/173 16/28 0:46:10
5 Miles 149/370 0:46:27 3088 GREEN, Joanne F5059 53/196 7/29 0:45:59
5 Miles 150/370 0:46:28 3072 WILLIAMSON, Sarah F-U20 54/196 8/23 0:46:17
5 Miles 151/370 0:46:30 2011 HAMMOND, Matthew M-U20 97/173 24/42 0:46:29
5 Miles 152/370 0:46:30 2120 ALLAN, Rachel F2029 55/196 11/51 0:45:49
5 Miles 153/370 0:46:31 2216 HALSTED, Chase M3039 98/173 17/32 0:45:49
5 Miles 154/370 0:46:31 3042 SINCLAIR, Campbel M5059 99/173 20/31 0:46:23
5 Miles 155/370 0:46:31 3558 MORALES, Emily F-U20 56/196 9/23 0:45:55
5 Miles 156/370 0:46:34 2017 KIRWIR, Tanner M-U20 100/173 25/42 0:46:33
5 Miles 157/370 0:46:35 2277 MCINNES, Suzanne F5059 57/196 8/29 0:46:25
5 Miles 158/370 0:46:50 2185 DICKSON, Rebecca F2029 58/196 12/51 0:46:30
5 Miles 159/370 0:46:54 2183 DE JOURDAN, Pam F5059 59/196 9/29 0:46:38
5 Miles 160/370 0:46:54 2259 LAYCOCK, Erica F3039 60/196 18/51 0:46:22
5 Miles 161/370 0:47:30 2157 CARO, Magdalena F3039 61/196 19/51 0:47:25
5 Miles 162/370 0:47:30 3585 PROCHNAVY, Brian M4049 101/173 17/28 0:47:25
5 Miles 163/370 0:47:32 2094 GIRLING, Trevor M4049 102/173 18/28 0:46:59
5 Miles 164/370 0:47:32 2102 HUNTER, Kady F2029 62/196 13/51 0:46:59
5 Miles 165/370 0:47:39 2279 MCKENZIE, Pennie F5059 63/196 10/29 0:46:56
5 Miles 166/370 0:47:40 3539 VAN SANT, Jane F4049 64/196 12/37 0:47:36
5 Miles 167/370 0:47:40 2182 DE JOURDAN, Bart M4049 103/173 19/28 0:47:25
5 Miles 168/370 0:47:43 3530 REG, Late     0:47:33
5 Miles 169/370 0:47:43 3071 WILLIAMS, Brent M3039 104/173 18/32 0:46:43
5 Miles 170/370 0:47:45 3532 PRUECKEL, Barb F3039 65/196 20/51 0:46:57
5 Miles 171/370 0:47:48 2196 FULMEK, Christie F-U20 66/196 10/23 0:47:25
5 Miles 172/370 0:47:53 2153 BULITZ, Kelly F3039 67/196 21/51 0:47:13
5 Miles 173/370 0:47:53 2295 MUNRO, Sue F5059 68/196 11/29 0:47:06
5 Miles 174/370 0:47:54 3001 OICLE, Doug M4049 105/173 20/28 0:47:30
5 Miles 175/370 0:47:55 3015 RECSKY, Alaina F2029 69/196 14/51 0:47:33
5 Miles 176/370 0:47:56 3579 GIRARD, Catherine F2029 70/196 15/51 0:46:56
5 Miles 177/370 0:47:58 3534 TOWNSEND, Jacquie F2029 71/196 16/51 0:46:54
5 Miles 178/370 0:48:06 2140 BINFET, Mackenzie F-U20 72/196 11/23 0:47:14
5 Miles 179/370 0:48:06 2141 BINFET, Margaret F4049 73/196 13/37 0:47:15
5 Miles 180/370 0:48:09 2283 MCNISH, Jennifer F4049 74/196 14/37 0:47:46
5 Miles 181/370 0:48:10 3529 HUME, Lashy F5059 75/196 12/29 0:48:02
5 Miles 182/370 0:48:15 2215 HALLAM, Michael M6069 106/173 2/6 0:48:05
5 Miles 183/370 0:48:24 2088 EDMUNDS, Candace F2029 76/196 17/51 0:47:30
5 Miles 184/370 0:48:26 2034 OUELLET, Tara F-U20 77/196 12/23 0:48:22
5 Miles 185/370 0:48:27 3562 MORISSETTE, Katy F2029 78/196 18/51 0:48:16
5 Miles 186/370 0:48:28 3561 STELLER, Sarah F2029 79/196 19/51 0:48:17
5 Miles 187/370 0:48:34 3068 WEBSTER, Kelsey F2029 80/196 20/51 0:47:33
5 Miles 188/370 0:48:35 3032 SANDERS, Kerri F2029 81/196 21/51 0:47:33
5 Miles 189/370 0:48:48 2114 OHLY, Michael M3039 107/173 19/32 0:48:11
5 Miles 190/370 0:48:54 3040 SIEMIENIUK, Jillian F-U20 82/196 13/23 0:48:47
5 Miles 191/370 0:48:57 3541 KAWA, Sanjir M2029 108/173 22/34 0:48:47
5 Miles 192/370 0:49:01 3030 SALAVARRIETA, Doris F4049 83/196 15/37 0:48:58
5 Miles 193/370 0:49:03 3511 BURTON, Joel M2029 109/173 23/34 0:48:39
5 Miles 194/370 0:49:05 2136 BARTLETT, Blair M3039 110/173 20/32 0:48:20
5 Miles 195/370 0:49:06 2049 ORTO, Twila F5059 84/196 13/29 0:49:06
5 Miles 196/370 0:49:08 3528 MILLIGAN, Irene F5059 85/196 14/29 0:48:59
5 Miles 197/370 0:49:08 2037 SCHNEIDER, Darcy M-U20 111/173 26/42 0:49:06
5 Miles 198/370 0:49:09 3577 BARLEY, Gareth M3039 112/173 21/32 0:48:07
5 Miles 199/370 0:49:09 3578 BRADLEY, Greg M3039 113/173 22/32 0:48:07
5 Miles 200/370 0:49:09 3537 MAKULC, Kira F-U20 86/196 14/23 0:48:52
5 Miles 201/370 0:49:14 2172 COLEBROOK, Jordan M2029 114/173 24/34 0:48:27
5 Miles 202/370 0:49:15 3556 YANICKI, Riley M-U20 115/173 27/42 0:48:54
5 Miles 203/370 0:49:20 3010 POLOPRUTSKY, Renee F3039 87/196 22/51 0:48:45
5 Miles 204/370 0:49:22 2012 HOLLMAN, Greg M-U20 116/173 28/42 0:49:20
5 Miles 205/370 0:49:28 3569 GRANT, Steve M4049 117/173 21/28 0:48:28
5 Miles 206/370 0:49:30 2103 HUNTER, Olivia F-U20 88/196 15/23 0:48:58
5 Miles 207/370 0:49:35 2092 GIRLING, Ben M-U20 118/173 29/42 0:49:01
5 Miles 208/370 0:49:35 2100 HUNTER, Chris M5059 119/173 21/31 0:49:01
5 Miles 209/370 0:49:35 2101 HUNTER, Gordon M-U20 120/173 30/42 0:49:01
5 Miles 210/370 0:49:35 2099 HUNTER, Cathleen F5059 89/196 15/29 0:49:02
5 Miles 211/370 0:49:38 2026 LUCAS, Aidan M-U20 121/173 31/42 0:49:38
5 Miles 212/370 0:49:43 3041 SIMONS, John M4049 122/173 22/28 0:48:51
5 Miles 213/370 0:49:50 2122 ALTWASSER, Diane F5059 90/196 16/29 0:49:14
5 Miles 214/370 0:49:51 2005 BISHOP, Josh M-U20 123/173 32/42 0:49:49
5 Miles 215/370 0:49:55 3056 TARBET, Chazz M-U20 124/173 33/42 0:49:18
5 Miles 216/370 0:49:57 2133 BAILLARGEON, Shari F3039 91/196 23/51 0:49:01
5 Miles 217/370 0:50:00 2262 LOGEL, Brittney F2029 92/196 22/51 0:49:12
5 Miles 218/370 0:50:03 2251 KOBLUK, Trevor M-U20 125/173 34/42 0:49:26
5 Miles 219/370 0:50:04 2229 HORNE, Kirsten F3039 93/196 24/51 0:49:56
5 Miles 220/370 0:50:05 3063 VELTRI, Nicole F2029 94/196 23/51 0:49:55
5 Miles 221/370 0:50:07 2163 CHERESNUIK, Michael M-U20 126/173 35/42 0:50:02
5 Miles 222/370 0:50:17 3049 STEWART, Colin M3039 127/173 23/32 0:49:08
5 Miles 223/370 0:50:26 2138 BASILIS, Marian F4049 95/196 16/37 0:50:14
5 Miles 224/370 0:50:35 2105 MACNEIL, Elizabeth F-U20 96/196 16/23 0:50:01
5 Miles 225/370 0:50:35 2106 MACNEIL, Katie F4049 97/196 17/37 0:50:02
5 Miles 226/370 0:50:38 3074 WILSON, Jodi F3039 98/196 25/51 0:50:14
5 Miles 227/370 0:50:38 3073 WILSON, Greg M3039 128/173 24/32 0:50:15
5 Miles 228/370 0:50:40 2137 BARTLETT, Susan F2029 99/196 24/51 0:49:55
5 Miles 229/370 0:50:46 2237 IDLAND, Kari F2029 100/196 25/51 0:50:09
5 Miles 230/370 0:50:51 3066 WALTERS, Valerie F6069 101/196 2/5 0:50:29
5 Miles 231/370 0:50:56 3092 MCLAUGHLIN, Jim M5059 129/173 22/31 0:49:42
5 Miles 232/370 0:50:59 3034 SCHOFIELD, Paul M4049 130/173 23/28 0:50:18
5 Miles 233/370 0:51:01 3083 BEAULIEU, Stephanie F2029 102/196 26/51 0:50:21
5 Miles 234/370 0:51:02 2014 HOPPE, Colin M-U20 131/173 36/42 0:51:02
5 Miles 235/370 0:51:07 2116 BARTIER, Don M5059 132/173 23/31 0:50:46
5 Miles 236/370 0:51:07 2115 BARTIER, Amanda F2029 103/196 27/51 0:50:45
5 Miles 237/370 0:51:12 2132 BAILLARGEON, Leanne F3039 104/196 26/51 0:50:15
5 Miles 238/370 0:51:17 2146 BOSCH, Carolyn F3039 105/196 27/51 0:50:23
5 Miles 239/370 0:51:17 3055 TALDORF, Sylvia F5059 106/196 17/29 0:50:59
5 Miles 240/370 0:51:18 2231 HUMPHRIES, Jackie F3039 107/196 28/51 0:50:49
5 Miles 241/370 0:51:18 3574 ANDERSON, Norbert M4049 133/173 24/28 0:50:42
5 Miles 242/370 0:51:20 3526 TAILFEATHERS, Jim M3039 134/173 25/32 0:50:15
5 Miles 243/370 0:51:21 3046 SPADEMAN, Benjamin M3039 135/173 26/32 0:50:34
5 Miles 244/370 0:51:22 2152 BUCHANAN, Rashida F2029 108/196 28/51 0:50:56
5 Miles 245/370 0:51:22 3028 RURAK, Terry M2029 136/173 25/34 0:50:56
5 Miles 246/370 0:51:27 3035 SCHOFIELD, Richard M5059 137/173 24/31 0:50:46
5 Miles 247/370 0:51:28 3581 EKVALL, Adam M2029 138/173 26/34 0:50:41
5 Miles 248/370 0:51:31 2249 KOBLUK, Hannah F2029 109/196 29/51 0:50:53
5 Miles 249/370 0:51:33 2201 GIRARD, Bryan M3039 139/173 27/32 0:50:41
5 Miles 250/370 0:51:34 3563 HOILES, Jacob M-U20 140/173 37/42 0:51:17
5 Miles 251/370 0:51:47 2148 BROCK, Lindsey F2029 110/196 30/51 0:51:44
5 Miles 252/370 0:51:49 3023 ROGOZA, Courtney F2029 111/196 31/51 0:50:55
5 Miles 253/370 0:51:53 2269 MARSH, Patsy F5059 112/196 18/29 0:50:57
5 Miles 254/370 0:51:57 3545 RENTON, Danielle F3039 113/196 29/51 0:51:05
5 Miles 255/370 0:52:04 2268 MANTY, Sarah F2029 114/196 32/51 0:51:11
5 Miles 256/370 0:52:11 2281 MCNICOL, Denise F4049 115/196 18/37 0:51:12
5 Miles 257/370 0:52:14 2212 HADDOW, Heather F5059 116/196 19/29 0:51:28
5 Miles 258/370 0:52:18 2134 BAIRD, Bob M5059 141/173 25/31 0:51:32
5 Miles 259/370 0:52:20 2210 GROVES, Ashley F3039 117/196 30/51 0:51:52
5 Miles 260/370 0:52:20 3076 WORDEN, Shawna F3039 118/196 31/51 0:51:53
5 Miles 261/370 0:52:27 3095 HILL, Karie F4049 119/196 19/37 0:52:19
5 Miles 262/370 0:52:27 2286 MIKULAK, Kevin M2029 142/173 27/34 0:52:06
5 Miles 263/370 0:52:29 3512 CUTTS, Renee F3039 120/196 32/51 0:52:06
5 Miles 264/370 0:52:30 3513 WAKELIN, Carole F3039 121/196 33/51 0:51:25
5 Miles 265/370 0:52:31 3514 FOWLOW, Dave M4049 143/173 25/28 0:51:26
5 Miles 266/370 0:52:34 2250 KOBLUK, Mike M5059 144/173 26/31 0:51:58
5 Miles 267/370 0:52:42 2061 SARTISON, Deanna F4049 122/196 20/37 0:51:57
5 Miles 268/370 0:52:44 3012 PRISNIE, Joey M2029 145/173 28/34 0:52:18
5 Miles 269/370 0:52:45 3039 SHAVE, Kassi F2029 123/196 33/51 0:52:18
5 Miles 270/370 0:52:55 2021 LANFERMAN, Echo M-U20 146/173 38/42 0:52:52
5 Miles 271/370 0:53:22 2149 BROOKER, Scott M6069 147/173 3/6 0:52:31
5 Miles 272/370 0:53:22 2199 GERRISH, Lindsay F2029 124/196 34/51 0:53:02
5 Miles 273/370 0:53:22 2180 DAVIS, Colin M3039 148/173 28/32 0:52:32
5 Miles 274/370 0:53:33 3559 HILLAND, Darlene F5059 125/196 20/29 0:52:41
5 Miles 275/370 0:53:37 2252 KROETSCH, Gina F3039 126/196 34/51 0:52:36
5 Miles 276/370 0:53:37 2293 MOORING, Patti F5059 127/196 21/29 0:53:01
5 Miles 277/370 0:53:37 3576 LEBLANC, Dominique F2029 128/196 35/51 0:52:37
5 Miles 278/370 0:53:40 3517 TAYLOR, Scott M3039 149/173 29/32 0:52:57
5 Miles 279/370 0:53:52 3580 OSTERDAL, Calvin M2029 150/173 29/34 0:53:07
5 Miles 280/370 0:53:53 3568 PONCELET, Rochelle F3039 129/196 35/51 0:53:26
5 Miles 281/370 0:54:09 3017 REINHOLZ, Carolyn F2029 130/196 36/51 0:53:35
5 Miles 282/370 0:54:10 3027 RUIZ, Sara F2029 131/196 37/51 0:53:36
5 Miles 283/370 0:54:10 2273 MCCRANK, Courtney F2029 132/196 38/51 0:53:48
5 Miles 284/370 0:54:11 2272 MCCRANK, Anne F4049 133/196 21/37 0:53:51
5 Miles 285/370 0:54:24 2254 KRUSHELNICKI, Sheryll F5059 134/196 22/29 0:54:06
5 Miles 286/370 0:54:37 3523 GRAINGER, Rich M5059 151/173 27/31 0:53:52
5 Miles 287/370 0:54:44 2048 COLL, Patrick M6069 152/173 4/6 0:54:15
5 Miles 288/370 0:54:48 3005 PARKER, Jennifer F4049 135/196 22/37 0:54:34
5 Miles 289/370 0:54:48 3520 PARKER, Rebecca F-U20 136/196 17/23 0:54:35
5 Miles 290/370 0:54:50 2192 FORD, Jacqueline F4049 137/196 23/37 0:54:11
5 Miles 291/370 0:54:50 2245 KELMAN, Karen F3039 138/196 36/51 0:54:27
5 Miles 292/370 0:54:51 3060 TIGNER, Dana F3039 139/196 37/51 0:54:05
5 Miles 293/370 0:54:55 2225 HIEBERT, Janelle F3039 140/196 38/51 0:53:54
5 Miles 294/370 0:55:08 2297 NORRIE, Eric M2029 153/173 30/34 0:54:24
5 Miles 295/370 0:55:24 3080 ZANELLA, Kristy F3039 141/196 39/51 0:54:52
5 Miles 296/370 0:55:34 3583 WALKER, Hannah F-U20 142/196 18/23 0:55:15
5 Miles 297/370 0:55:34 3584 WALKER, Marion F4049 143/196 24/37 0:55:15
5 Miles 298/370 0:55:36 2050 VIGAR, Barbara F5059 144/196 23/29 0:55:09
5 Miles 299/370 0:55:37 2047 BARBARO, Donna F5059 145/196 24/29 0:55:10
5 Miles 300/370 0:56:00 2166 CHUNG, Cathy F6069 146/196 3/5 0:55:30
5 Miles 301/370 0:56:08 3536 TENKINK, Michaela F2029 147/196 39/51 0:55:01
5 Miles 302/370 0:56:09 2119 ADAMS, Christine F3039 148/196 40/51 0:55:02
5 Miles 303/370 0:56:10 3572 ROMEO, Edwardo M4049 154/173 26/28 0:56:00
5 Miles 304/370 0:56:11 3550 VILLABROZA, Greg M5059 155/173 28/31 0:55:40
5 Miles 305/370 0:56:11 2260 LEDEZMA, Josselyn F4049 149/196 25/37 0:56:00
5 Miles 306/370 0:56:22 2292 MOORING, Jaclyn F-U20 150/196 19/23 0:55:46
5 Miles 307/370 0:56:40 3570 GRANT, Shereen F3039 151/196 41/51 0:55:42
5 Miles 308/370 0:56:40 2197 GAGNON, Lisa F4049 152/196 26/37 0:55:38
5 Miles 309/370 0:56:45 3048 STAUTH, Megan F2029 153/196 40/51 0:56:13
5 Miles 310/370 0:56:45 3004 PAPADOULIS, Alexander M2029 156/173 31/34 0:56:14
5 Miles 311/370 0:56:48 2009 DENNEY, Kade M-U20 157/173 39/42 0:56:48
5 Miles 312/370 0:57:04 2220 HANSEN, Laurie E F2029 154/196 41/51 0:56:38
5 Miles 313/370 0:57:08 2084 BOWES, Marybeth F4049 155/196 27/37 0:56:23
5 Miles 314/370 0:57:08 3516 PRASAD, Indra F2029 156/196 42/51 0:56:27
5 Miles 315/370 0:57:21 3062 VAN KRUYSSEN, Sara F2029 157/196 43/51 0:56:49
5 Miles 316/370 0:57:22 2242 JOHANSEN, Heather F3039 158/196 42/51 0:56:40
5 Miles 317/370 0:57:28 2173 COLLINGE, Crystal F3039 159/196 43/51 0:56:29
5 Miles 318/370 0:57:35 3543 NUSSBAUM, Madison F-U20 160/196 20/23 0:57:19
5 Miles 319/370 0:57:39 3098 TOCHER, Dan M4049 158/173 27/28 0:57:33
5 Miles 320/370 0:57:40 3099 MCDONOUGH, Alanna F4049 161/196 28/37 0:57:34
5 Miles 321/370 0:57:50 3065 WALL, Cathy F4049 162/196 29/37 0:57:04
5 Miles 322/370 0:57:51 3067 WATERS, Natasha F3039 163/196 44/51 0:57:04
5 Miles 323/370 0:57:53 2213 HAEKEL, Herb M5059 159/173 29/31 0:57:14
5 Miles 324/370 0:57:57 2090 FORTOWSKY, Lindsay F3039 164/196 45/51 0:57:03
5 Miles 325/370 0:58:14 2239 JAEGER, Sandy F5059 165/196 25/29 0:57:17
5 Miles 326/370 0:58:41 2082 VANWYK, Kevin M2029 160/173 32/34 0:57:31
5 Miles 327/370 0:58:52 2169 CLINCKETT, Clare F2029 166/196 44/51 0:58:32
5 Miles 328/370 0:59:02 3548 ROSSWORM, Ethan M-U20 161/173 40/42 0:57:49
5 Miles 329/370 0:59:13 2074 JABBAL, Rekha F4049 167/196 30/37 0:59:07
5 Miles 330/370 0:59:15 2054 BURTON, Cathy F5059 168/196 26/29 0:58:51
5 Miles 331/370 0:59:33 2232 HUNAG, Wen-Shu F4049 169/196 31/37 0:59:18
5 Miles 332/370 0:59:42 2188 DUFFY, Christine F3039 170/196 46/51 0:59:12
5 Miles 333/370 1:01:02 2121 ALLEN, Lindsey F2029 171/196 45/51 0:59:50
5 Miles 334/370 1:01:03 2240 JANOT, Travis M2029 162/173 33/34 0:59:50
5 Miles 335/370 1:01:07 3054 TALDORF, Krista F4049 172/196 32/37 1:00:48
5 Miles 336/370 1:01:10 2086 BUMSTEAD, Lloyd M5059 163/173 30/31 1:00:53
5 Miles 337/370 1:01:39 3560 DALTON, Ashley F2029 173/196 46/51 1:00:39
5 Miles 338/370 1:01:40 2184 DEAN, Michelle F3039 174/196 47/51 1:00:58
5 Miles 339/370 1:01:41 2118 ADAMS, Brad M3039 164/173 30/32 1:00:26
5 Miles 340/370 1:01:46 2065 SCHISSEL, Craig M3039 165/173 31/32 1:00:55
5 Miles 341/370 1:01:54 3052 SZACHTA, Sophie F4049 175/196 33/37 1:01:41
5 Miles 342/370 1:02:38 3544 HADDAD, Matthew M-U20 166/173 41/42 1:02:15
5 Miles 343/370 1:02:49 3554 SCHNEIDER, Kara F3039 176/196 48/51 1:01:59
5 Miles 344/370 1:03:11 3014 READ, Crystal F3039 177/196 49/51 1:02:39
5 Miles 345/370 1:03:11 2139 BERRETH, Kimberley F3039 178/196 50/51 1:02:39
5 Miles 346/370 1:03:17 2064 JONES, Patricia F4049 179/196 34/37 1:02:30
5 Miles 347/370 1:03:32 3007 PATE, Victoria F-U20 180/196 21/23 1:02:38
5 Miles 348/370 1:03:33 2154 BURKE, Mack M-U20 167/173 42/42 1:02:40
5 Miles 349/370 1:04:22 3085 FVCHEK, Sylvia F5059 181/196 27/29 1:03:26
5 Miles 350/370 1:04:40 2078 MOSSING, Amanda F2029 182/196 47/51 1:03:30
5 Miles 351/370 1:04:40 2083 VANWYK, Ruth F2029 183/196 48/51 1:03:32
5 Miles 352/370 1:04:41 3075 WONG, Cathy F6069 184/196 4/5 1:04:27
5 Miles 353/370 1:04:56 2117 AARSBY, Paulette F4049 185/196 35/37 1:04:00
5 Miles 354/370 1:05:23 2176 COUSINS, Carolyn F5059 186/196 28/29 1:05:07
5 Miles 355/370 1:06:25 2160 CHANG, Adrian M6069 168/173 5/6 1:05:54
5 Miles 356/370 1:06:45 2068 SCHISSEL, John M6069 169/173 6/6 1:06:01
5 Miles 357/370 1:06:51 3582 NADEAU, Branden M2029 170/173 34/34 1:06:07
5 Miles 358/370 1:06:55 3087 WILSON, Alexandra F-U20 187/196 22/23 1:06:06
5 Miles 359/370 1:07:06 2066 SCHISSEL, Jacqueline F5059 188/196 29/29 1:06:17
5 Miles 360/370 1:07:08 3542 NUSSBAUM, Emily F-U20 189/196 23/23 1:06:52
5 Miles 361/370 1:07:24 2113 WAKE, Tracy F4049 190/196 36/37 1:07:24
5 Miles 362/370 1:07:46 3050 STEWART, Jenn F3039 191/196 51/51 1:06:37
5 Miles 363/370 1:07:49 2147 BOYETCHKO, Jacqueline F2029 192/196 49/51 1:06:54
5 Miles 364/370 1:07:50 2290 MIRANDA, Stan M5059 171/173 31/31 1:06:55
5 Miles 365/370 1:10:01 2124 ANDERSON, Erin F2029 193/196 50/51 1:09:04
5 Miles 366/370 1:10:02 3036 SEITZ, Sara F2029 194/196 51/51 1:09:04
5 Miles 367/370 1:11:41 3551 SAINI, Puneet M3039 172/173 32/32 1:11:12
5 Miles 368/370 1:14:15 3553 CASTILLO, Victor M4049 173/173 28/28 1:13:37
5 Miles 369/370 1:14:16 3552 CASTILLO, Eilleen F4049 195/196 37/37 1:13:39
5 Miles 370/370 1:15:43 3521 MAURICE, Mary Ann F6069 196/196 5/5 1:15:21